createdAt,value
2023-03-18T00:02:06.344Z,96499.63
2023-03-18T00:04:35.521Z,96501.56
2023-03-18T00:07:05.243Z,96508.16
2023-03-18T00:09:34.679Z,96512.22
2023-03-18T00:12:03.097Z,96508.00
2023-03-18T00:14:33.011Z,96520.56
2023-03-18T00:17:01.347Z,96514.03
2023-03-18T00:19:30.042Z,96516.28
2023-03-18T00:21:59.421Z,96526.81
2023-03-18T00:24:29.816Z,96521.50
2023-03-18T00:26:58.486Z,96522.84
2023-03-18T00:29:27.220Z,96528.69
2023-03-18T00:31:55.888Z,96524.91
2023-03-18T00:34:24.844Z,96528.94
2023-03-18T00:36:57.210Z,96532.75
2023-03-18T00:39:28.846Z,96523.38
2023-03-18T00:41:59.014Z,96528.53
2023-03-18T00:44:27.410Z,96531.97
2023-03-18T00:46:55.740Z,96533.22
2023-03-18T00:49:25.080Z,96547.88
2023-03-18T00:51:54.252Z,96549.50
2023-03-18T00:54:24.849Z,96543.34
2023-03-18T00:56:54.024Z,96555.84
2023-03-18T00:59:24.020Z,96553.69
2023-03-18T01:01:52.700Z,96566.44
2023-03-18T01:04:21.579Z,96557.59
2023-03-18T01:06:50.145Z,96554.72
2023-03-18T01:09:18.504Z,96556.41
2023-03-18T01:11:46.870Z,96552.66
2023-03-18T01:14:15.460Z,96548.91
2023-03-18T01:16:46.980Z,96552.47
2023-03-18T01:19:16.170Z,96546.81
2023-03-18T01:21:44.977Z,96548.38
2023-03-18T01:24:13.332Z,96540.53
2023-03-18T01:26:41.921Z,96542.88
2023-03-18T01:29:12.726Z,96537.34
2023-03-18T01:31:41.619Z,96538.56
2023-03-18T01:34:17.486Z,96546.84
2023-03-18T01:36:51.432Z,96542.53
2023-03-18T01:39:23.855Z,96539.31
2023-03-18T01:41:53.048Z,96548.16
2023-03-18T01:44:30.956Z,96546.75
2023-03-18T01:47:02.150Z,96551.41
2023-03-18T01:49:38.574Z,96545.72
2023-03-18T01:52:12.921Z,96551.63
2023-03-18T01:54:47.945Z,96541.97
2023-03-18T01:57:19.202Z,96556.06
2023-03-18T01:59:51.832Z,96546.91
2023-03-18T02:02:20.810Z,96548.50
2023-03-18T02:04:53.833Z,96556.31
2023-03-18T02:07:25.748Z,96564.22
2023-03-18T02:09:56.601Z,96559.38
2023-03-18T02:12:30.100Z,96561.28
2023-03-18T02:15:03.987Z,96556.94
2023-03-18T02:17:38.065Z,96567.56
2023-03-18T02:20:26.025Z,96563.31
2023-03-18T02:23:00.444Z,96562.59
2023-03-18T02:25:44.045Z,96561.00
2023-03-18T02:28:21.594Z,96560.72
2023-03-18T02:30:53.124Z,96569.63
2023-03-18T02:33:27.817Z,96566.34
2023-03-18T02:36:02.203Z,96573.94
2023-03-18T02:38:32.060Z,96585.00
2023-03-18T02:41:02.101Z,96578.50
2023-03-18T02:43:41.687Z,96588.50
2023-03-18T02:46:25.699Z,96589.94
2023-03-18T02:48:55.216Z,96586.72
2023-03-18T02:51:24.822Z,96583.78
2023-03-18T02:53:56.694Z,96582.69
2023-03-18T02:56:26.649Z,96577.34
2023-03-18T02:58:56.532Z,96575.47
2023-03-18T03:01:25.463Z,96574.91
2023-03-18T03:03:53.834Z,96584.81
2023-03-18T03:06:22.446Z,96594.25
2023-03-18T03:08:51.672Z,96589.94
2023-03-18T03:11:21.273Z,96587.03
2023-03-18T03:13:50.307Z,96586.16
2023-03-18T03:16:22.764Z,96591.00
2023-03-18T03:18:51.651Z,96594.22
2023-03-18T03:21:20.352Z,96596.94
2023-03-18T03:23:50.495Z,96591.59
2023-03-18T03:26:19.346Z,96597.81
2023-03-18T03:28:48.164Z,96592.47
2023-03-18T03:31:17.018Z,96601.63
2023-03-18T03:33:47.756Z,96594.34
2023-03-18T03:36:18.870Z,96606.22
2023-03-18T03:38:48.363Z,96606.25
2023-03-18T03:41:17.192Z,96603.81
2023-03-18T03:43:46.323Z,96603.00
2023-03-18T03:46:15.702Z,96606.22
2023-03-18T03:48:47.961Z,96609.47
2023-03-18T03:51:16.512Z,96621.06
2023-03-18T03:53:46.484Z,96614.88
2023-03-18T03:56:16.691Z,96616.47
2023-03-18T03:58:45.880Z,96622.41
2023-03-18T04:01:14.800Z,96625.13
2023-03-18T04:03:46.527Z,96623.78
2023-03-18T04:06:15.505Z,96631.81
2023-03-18T04:08:52.388Z,96636.69
2023-03-18T04:11:22.215Z,96630.75
2023-03-18T04:13:50.839Z,96627.50
2023-03-18T04:16:19.308Z,96625.38
2023-03-18T04:18:49.943Z,96621.34
2023-03-18T04:21:18.786Z,96625.66
2023-03-18T04:23:51.746Z,96629.19
2023-03-18T04:26:20.285Z,96626.78
2023-03-18T04:28:49.727Z,96633.53
2023-03-18T04:31:18.326Z,96627.88
2023-03-18T04:33:47.709Z,96632.72
2023-03-18T04:36:18.080Z,96627.59
2023-03-18T04:38:47.083Z,96627.59
2023-03-18T04:41:16.121Z,96636.22
2023-03-18T04:43:45.651Z,96629.72
2023-03-18T04:46:15.087Z,96637.00
2023-03-18T04:48:45.938Z,96634.31
2023-03-18T04:51:15.495Z,96629.94
2023-03-18T04:53:46.654Z,96634.78
2023-03-18T04:56:15.425Z,96631.31
2023-03-18T04:58:49.734Z,96625.41
2023-03-18T05:01:26.729Z,96627.81
2023-03-18T05:03:55.617Z,96629.97
2023-03-18T05:06:30.115Z,96626.22
2023-03-18T05:09:13.840Z,96627.59
2023-03-18T05:11:43.713Z,96624.63
2023-03-18T05:14:24.188Z,96622.50
2023-03-18T05:16:53.800Z,96633.53
2023-03-18T05:19:23.974Z,96628.94
2023-03-18T05:22:02.984Z,96628.94
2023-03-18T05:24:33.752Z,96630.31
2023-03-18T05:27:02.880Z,96631.66
2023-03-18T05:29:38.432Z,96650.75
2023-03-18T05:32:16.622Z,96642.38
2023-03-18T05:34:46.470Z,96642.66
2023-03-18T05:37:16.507Z,96662.06
2023-03-18T05:39:54.031Z,96655.84
2023-03-18T05:42:22.893Z,96654.25
2023-03-18T05:44:51.673Z,96654.75
2023-03-18T05:47:23.667Z,96650.44
2023-03-18T05:50:08.640Z,96656.34
2023-03-18T05:52:38.376Z,96653.09
2023-03-18T05:55:16.076Z,96656.03
2023-03-18T05:57:46.888Z,96660.00
2023-03-18T06:00:18.785Z,96660.88
2023-03-18T06:02:52.487Z,96665.69
2023-03-18T06:05:21.192Z,96660.88
2023-03-18T06:07:50.312Z,96666.78
2023-03-18T06:10:21.079Z,96666.16
2023-03-18T06:12:51.333Z,96670.69
2023-03-18T06:15:21.564Z,96674.97
2023-03-18T06:17:51.600Z,96680.00
2023-03-18T06:20:21.043Z,96673.25
2023-03-18T06:22:50.418Z,96674.81
2023-03-18T06:25:23.284Z,96678.53
2023-03-18T06:27:52.971Z,96686.75
2023-03-18T06:30:24.963Z,96688.03
2023-03-18T06:32:53.472Z,96683.19
2023-03-18T06:35:26.625Z,96691.56
2023-03-18T06:37:55.913Z,96688.41
2023-03-18T06:40:26.487Z,96695.16
2023-03-18T06:42:56.603Z,96695.78
2023-03-18T06:45:35.203Z,96686.09
2023-03-18T06:48:09.649Z,96680.66
2023-03-18T06:50:43.181Z,96675.56
2023-03-18T06:53:25.369Z,96682.72
2023-03-18T06:55:56.780Z,96689.63
2023-03-18T06:58:28.240Z,96694.16
2023-03-18T07:01:06.135Z,96673.59
2023-03-18T07:03:39.839Z,96670.53
2023-03-18T07:06:10.749Z,96683.38
2023-03-18T07:08:41.023Z,96693.13
2023-03-18T07:11:11.079Z,96689.66
2023-03-18T07:13:42.884Z,96690.03
2023-03-18T07:16:18.724Z,96689.50
2023-03-18T07:18:47.807Z,96684.94
2023-03-18T07:21:16.818Z,96678.47
2023-03-18T07:23:45.242Z,96690.13
2023-03-18T07:26:15.062Z,96701.91
2023-03-18T07:28:43.448Z,96708.66
2023-03-18T07:31:12.479Z,96709.78
2023-03-18T07:33:41.982Z,96715.34
2023-03-18T07:36:11.134Z,96707.09
2023-03-18T07:38:40.145Z,96689.28
2023-03-18T07:41:08.799Z,96703.25
2023-03-18T07:43:40.162Z,96706.34
2023-03-18T07:46:08.799Z,96712.59
2023-03-18T07:48:37.139Z,96714.38
2023-03-18T07:51:06.934Z,96711.66
2023-03-18T07:53:35.973Z,96717.38
2023-03-18T07:56:04.606Z,96719.75
2023-03-18T07:58:33.223Z,96716.13
2023-03-18T08:01:04.037Z,96722.97
2023-03-18T08:03:32.636Z,96714.47
2023-03-18T08:06:01.122Z,96719.09
2023-03-18T08:08:29.769Z,96722.31
2023-03-18T08:11:00.442Z,96717.34
2023-03-18T08:13:29.081Z,96717.16
2023-03-18T08:15:58.677Z,96723.63
2023-03-18T08:18:28.799Z,96723.81
2023-03-18T08:20:57.604Z,96727.34
2023-03-18T08:23:26.127Z,96735.28
2023-03-18T08:25:54.863Z,96724.53
2023-03-18T08:28:23.771Z,96730.56
2023-03-18T08:30:56.951Z,96727.00
2023-03-18T08:33:28.661Z,96734.00
2023-03-18T08:35:58.426Z,96735.03
2023-03-18T08:38:27.088Z,96729.31
2023-03-18T08:40:56.950Z,96731.97
2023-03-18T08:43:25.892Z,96739.72
2023-03-18T08:45:55.564Z,96735.38
2023-03-18T08:48:26.121Z,96733.41
2023-03-18T08:50:55.959Z,96731.59
2023-03-18T08:53:24.348Z,96728.25
2023-03-18T08:55:52.798Z,96730.91
2023-03-18T08:58:21.518Z,96724.56
2023-03-18T09:00:50.771Z,96723.63
2023-03-18T09:03:19.027Z,96729.13
2023-03-18T09:05:50.311Z,96734.25
2023-03-18T09:08:22.047Z,96727.78
2023-03-18T09:10:53.851Z,96725.50
2023-03-18T09:13:22.480Z,96720.31
2023-03-18T09:15:51.112Z,96732.63
2023-03-18T09:18:20.406Z,96719.66
2023-03-18T09:20:49.120Z,96725.56
2023-03-18T09:23:20.244Z,96718.25
2023-03-18T09:25:50.228Z,96717.56
2023-03-18T09:28:18.878Z,96725.25
2023-03-18T09:30:47.265Z,96719.03
2023-03-18T09:33:16.233Z,96723.53
2023-03-18T09:35:44.805Z,96726.81
2023-03-18T09:38:16.578Z,96736.28
2023-03-18T09:41:01.132Z,96729.47
2023-03-18T09:43:49.458Z,96722.38
2023-03-18T09:46:29.501Z,96723.59
2023-03-18T09:49:22.729Z,96719.50
2023-03-18T09:52:00.739Z,96719.25
2023-03-18T09:54:39.330Z,96715.94
2023-03-18T09:57:19.621Z,96718.66
2023-03-18T09:59:54.815Z,96724.72
2023-03-18T10:02:32.766Z,96714.81
2023-03-18T10:05:07.134Z,96723.31
2023-03-18T10:07:42.900Z,96723.66
2023-03-18T10:10:21.338Z,96719.53
2023-03-18T10:13:03.400Z,96718.78
2023-03-18T10:15:38.273Z,96716.94
2023-03-18T10:18:16.338Z,96716.00
2023-03-18T10:21:02.217Z,96716.19
2023-03-18T10:23:50.174Z,96710.09
2023-03-18T10:26:28.054Z,96710.66
2023-03-18T10:29:13.585Z,96711.81
2023-03-18T10:31:56.508Z,96708.19
2023-03-18T10:34:39.919Z,96709.78
2023-03-18T10:37:20.175Z,96696.66
2023-03-18T10:39:50.431Z,96703.50
2023-03-18T10:42:27.108Z,96704.72
2023-03-18T10:45:08.595Z,96702.22
2023-03-18T10:47:45.430Z,96705.03
2023-03-18T10:50:22.099Z,96701.41
2023-03-18T10:52:59.992Z,96698.28
2023-03-18T10:55:37.411Z,96692.66
2023-03-18T10:58:17.923Z,96686.69
2023-03-18T11:00:48.040Z,96680.44
2023-03-18T11:03:29.451Z,96686.84
2023-03-18T11:06:04.366Z,96679.59
2023-03-18T11:08:37.864Z,96679.50
2023-03-18T11:11:33.133Z,96672.38
2023-03-18T11:14:03.615Z,96676.72
2023-03-18T11:16:39.849Z,96663.66
2023-03-18T11:19:32.534Z,96661.31
2023-03-18T11:22:22.374Z,96660.13
2023-03-18T11:25:08.148Z,96646.81
2023-03-18T11:27:41.458Z,96648.22
2023-03-18T11:30:38.027Z,96642.44
2023-03-18T11:33:17.474Z,96643.09
2023-03-18T11:35:53.231Z,96641.78
2023-03-18T11:38:28.724Z,96640.41
2023-03-18T11:41:08.968Z,96644.03
2023-03-18T11:43:38.745Z,96643.56
2023-03-18T11:46:10.773Z,96641.81
2023-03-18T11:48:44.317Z,96640.19
2023-03-18T11:51:52.250Z,96635.41
2023-03-18T11:54:41.337Z,96629.47
2023-03-18T11:57:17.008Z,96624.84
2023-03-18T12:00:08.165Z,96626.88
2023-03-18T12:03:14.373Z,96626.28
2023-03-18T12:06:00.481Z,96620.56
2023-03-18T12:08:45.165Z,96620.28
2023-03-18T12:11:24.948Z,96614.31
2023-03-18T12:14:05.602Z,96614.84
2023-03-18T12:16:51.888Z,96612.44
2023-03-18T12:20:05.698Z,96611.53
2023-03-18T12:22:58.686Z,96609.47
2023-03-18T12:26:02.325Z,96613.28
2023-03-18T12:29:09.965Z,96600.41
2023-03-18T12:31:57.395Z,96609.16
2023-03-18T12:34:46.824Z,96601.75
2023-03-18T12:37:35.719Z,96612.44
2023-03-18T12:40:24.730Z,96612.41
2023-03-18T12:43:34.114Z,96604.78
2023-03-18T12:46:14.729Z,96596.78
2023-03-18T12:48:55.841Z,96600.19
2023-03-18T12:51:30.517Z,96593.44
2023-03-18T12:54:10.797Z,96589.84
2023-03-18T12:56:50.986Z,96590.44
2023-03-18T12:59:29.084Z,96588.47
2023-03-18T13:02:22.889Z,96588.44
2023-03-18T13:04:58.997Z,96593.81
2023-03-18T13:07:43.239Z,96591.38
2023-03-18T13:10:23.450Z,96596.09
2023-03-18T13:12:59.629Z,96587.50
2023-03-18T13:15:35.065Z,96582.16
2023-03-18T13:18:15.965Z,96585.34
2023-03-18T13:20:46.826Z,96577.16
2023-03-18T13:23:40.307Z,96570.75
2023-03-18T13:26:18.424Z,96564.84
2023-03-18T13:29:09.527Z,96565.56
2023-03-18T13:31:55.141Z,96563.44
2023-03-18T13:35:12.729Z,96567.66
2023-03-18T13:38:23.324Z,96563.75
2023-03-18T13:41:21.287Z,96561.13
2023-03-18T13:43:53.413Z,96562.66
2023-03-18T13:46:27.238Z,96560.03
2023-03-18T13:48:58.858Z,96553.72
2023-03-18T13:51:52.487Z,96553.22
2023-03-18T13:54:22.329Z,96553.47
2023-03-18T13:56:55.786Z,96545.25
2023-03-18T13:59:48.528Z,96544.81
2023-03-18T14:02:45.716Z,96544.63
2023-03-18T14:05:41.689Z,96538.25
2023-03-18T14:08:46.541Z,96535.38
2023-03-18T14:11:50.377Z,96537.28
2023-03-18T14:15:11.929Z,96541.19
2023-03-18T14:17:49.011Z,96538.88
2023-03-18T14:20:39.572Z,96538.41
2023-03-18T14:23:42.757Z,96524.09
2023-03-18T14:26:25.099Z,96521.00
2023-03-18T14:29:03.748Z,96522.47
2023-03-18T14:31:57.755Z,96516.69
2023-03-18T14:34:29.317Z,96515.91
2023-03-18T14:37:27.935Z,96515.34
2023-03-18T14:40:05.821Z,96517.19
2023-03-18T14:42:45.847Z,96517.81
2023-03-18T14:45:25.750Z,96513.72
2023-03-18T14:47:57.704Z,96509.06
2023-03-18T14:50:43.329Z,96502.84
2023-03-18T14:53:22.577Z,96505.19
2023-03-18T14:55:55.136Z,96502.16
2023-03-18T14:58:26.322Z,96502.38
2023-03-18T15:01:00.600Z,96497.38
2023-03-18T15:03:32.710Z,96500.34
2023-03-18T15:06:03.924Z,96501.22
2023-03-18T15:08:47.445Z,96499.47
2023-03-18T15:11:19.558Z,96503.16
2023-03-18T15:13:48.634Z,96504.41
2023-03-18T15:16:21.504Z,96509.88
2023-03-18T15:18:56.430Z,96495.97
2023-03-18T15:21:32.374Z,96501.44
2023-03-18T15:24:04.631Z,96505.59
2023-03-18T15:26:37.674Z,96497.88
2023-03-18T15:29:28.264Z,96493.84
2023-03-18T15:32:10.705Z,96487.09
2023-03-18T15:34:44.604Z,96490.63
2023-03-18T15:37:33.710Z,96485.41
2023-03-18T15:40:27.050Z,96483.81
2023-03-18T15:42:58.882Z,96485.88
2023-03-18T15:45:31.364Z,96484.91
2023-03-18T15:48:09.477Z,96492.19
2023-03-18T15:50:53.582Z,96489.41
2023-03-18T15:53:24.747Z,96489.72
2023-03-18T15:55:56.752Z,96485.88
2023-03-18T15:58:29.211Z,96487.69
2023-03-18T16:00:58.752Z,96489.66
2023-03-18T16:03:32.368Z,96486.72
2023-03-18T16:06:03.173Z,96497.09
2023-03-18T16:08:31.687Z,96491.72
2023-03-18T16:11:05.850Z,96489.66
2023-03-18T16:13:37.027Z,96486.63
2023-03-18T16:16:06.153Z,96496.16
2023-03-18T16:18:34.967Z,96492.47
2023-03-18T16:21:05.447Z,96500.97
2023-03-18T16:23:33.912Z,96508.72
2023-03-18T16:26:03.121Z,96509.00
2023-03-18T16:28:31.735Z,96513.19
2023-03-18T16:31:00.895Z,96492.72
2023-03-18T16:33:29.628Z,96496.41
2023-03-18T16:36:01.677Z,96504.44
2023-03-18T16:38:33.579Z,96501.91
2023-03-18T16:41:03.074Z,96512.75
2023-03-18T16:43:33.762Z,96519.06
2023-03-18T16:46:05.641Z,96508.88
2023-03-18T16:48:34.301Z,96518.59
2023-03-18T16:51:04.566Z,96507.25
2023-03-18T16:53:34.388Z,96517.19
2023-03-18T16:56:11.432Z,96515.16
2023-03-18T16:58:39.659Z,96515.56
2023-03-18T17:01:08.233Z,96525.13
2023-03-18T17:03:37.678Z,96524.97
2023-03-18T17:06:08.755Z,96523.97
2023-03-18T17:08:38.476Z,96523.66
2023-03-18T17:11:07.449Z,96533.09
2023-03-18T17:13:38.617Z,96526.63
2023-03-18T17:16:15.621Z,96529.06
2023-03-18T17:18:43.984Z,96523.91
2023-03-18T17:21:13.509Z,96530.22
2023-03-18T17:23:43.173Z,96521.19
2023-03-18T17:26:16.029Z,96527.47
2023-03-18T17:28:48.681Z,96528.06
2023-03-18T17:31:17.729Z,96526.66
2023-03-18T17:33:46.720Z,96528.09
2023-03-18T17:36:15.031Z,96529.81
2023-03-18T17:38:44.699Z,96534.31
2023-03-18T17:41:20.961Z,96532.13
2023-03-18T17:43:49.739Z,96537.72
2023-03-18T17:46:18.991Z,96539.34
2023-03-18T17:48:47.321Z,96536.53
2023-03-18T17:51:18.687Z,96528.31
2023-03-18T17:53:51.451Z,96535.03
2023-03-18T17:56:21.127Z,96531.47
2023-03-18T17:58:53.422Z,96535.94
2023-03-18T18:01:26.592Z,96532.50
2023-03-18T18:03:58.234Z,96535.44
2023-03-18T18:06:29.277Z,96535.44
2023-03-18T18:09:01.194Z,96541.84
2023-03-18T18:11:32.966Z,96537.50
2023-03-18T18:14:13.440Z,96537.03
2023-03-18T18:16:41.772Z,96536.69
2023-03-18T18:19:12.467Z,96533.94
2023-03-18T18:21:41.698Z,96532.25
2023-03-18T18:24:22.728Z,96533.47
2023-03-18T18:26:51.408Z,96537.44
2023-03-18T18:29:23.494Z,96536.28
2023-03-18T18:31:52.772Z,96541.06
2023-03-18T18:34:21.634Z,96540.25
2023-03-18T18:36:51.310Z,96534.69
2023-03-18T18:39:21.200Z,96537.00
2023-03-18T18:41:49.905Z,96538.19
2023-03-18T18:44:19.154Z,96539.53
2023-03-18T18:46:47.885Z,96539.47
2023-03-18T18:49:23.017Z,96540.56
2023-03-18T18:51:53.326Z,96537.44
2023-03-18T18:54:24.194Z,96530.25
2023-03-18T18:56:53.802Z,96530.22
2023-03-18T18:59:26.935Z,96534.19
2023-03-18T19:01:56.512Z,96535.16
2023-03-18T19:04:25.309Z,96528.13
2023-03-18T19:06:54.642Z,96523.88
2023-03-18T19:09:26.081Z,96529.00
2023-03-18T19:11:56.370Z,96533.28
2023-03-18T19:14:28.365Z,96530.50
2023-03-18T19:16:59.842Z,96533.03
2023-03-18T19:19:34.417Z,96529.91
2023-03-18T19:22:04.623Z,96528.78
2023-03-18T19:24:37.065Z,96532.97
2023-03-18T19:27:16.289Z,96536.34
2023-03-18T19:29:45.640Z,96541.00
2023-03-18T19:32:19.228Z,96545.84
2023-03-18T19:34:48.901Z,96525.56
2023-03-18T19:37:21.492Z,96531.91
2023-03-18T19:39:51.710Z,96531.16
2023-03-18T19:42:20.652Z,96539.69
2023-03-18T19:44:50.218Z,96536.78
2023-03-18T19:47:20.946Z,96540.22
2023-03-18T19:49:49.661Z,96545.47
2023-03-18T19:52:21.291Z,96547.78
2023-03-18T19:54:52.297Z,96547.63
2023-03-18T19:57:27.087Z,96551.50
2023-03-18T19:59:58.354Z,96544.72
2023-03-18T20:02:29.606Z,96558.56
2023-03-18T20:05:02.103Z,96549.13
2023-03-18T20:07:33.408Z,96555.44
2023-03-18T20:10:03.274Z,96554.81
2023-03-18T20:12:37.146Z,96559.97
2023-03-18T20:15:07.766Z,96557.59
2023-03-18T20:17:40.189Z,96561.78
2023-03-18T20:20:14.460Z,96562.44
2023-03-18T20:22:48.089Z,96560.19
2023-03-18T20:25:28.741Z,96568.16
2023-03-18T20:27:58.085Z,96563.97
2023-03-18T20:30:31.019Z,96575.53
2023-03-18T20:33:03.834Z,96573.44
2023-03-18T20:35:36.736Z,96573.13
2023-03-18T20:38:13.216Z,96578.91
2023-03-18T20:40:47.610Z,96573.50
2023-03-18T20:43:17.202Z,96568.41
2023-03-18T20:45:45.864Z,96567.72
2023-03-18T20:48:14.577Z,96573.00
2023-03-18T20:50:43.068Z,96579.84
2023-03-18T20:53:17.905Z,96580.28
2023-03-18T20:55:47.824Z,96580.59
2023-03-18T20:58:17.964Z,96579.28
2023-03-18T21:00:47.243Z,96580.91
2023-03-18T21:03:23.913Z,96580.41
2023-03-18T21:05:53.609Z,96581.41
2023-03-18T21:08:22.100Z,96583.84
2023-03-18T21:10:52.517Z,96588.84
2023-03-18T21:13:29.079Z,96591.88
2023-03-18T21:16:00.429Z,96585.66
2023-03-18T21:18:29.120Z,96581.34
2023-03-18T21:20:58.793Z,96581.22
2023-03-18T21:23:30.089Z,96577.06
2023-03-18T21:26:00.233Z,96573.41
2023-03-18T21:28:31.763Z,96580.59
2023-03-18T21:31:01.514Z,96580.91
2023-03-18T21:33:34.119Z,96579.13
2023-03-18T21:36:03.528Z,96575.25
2023-03-18T21:38:34.974Z,96575.91
2023-03-18T21:41:04.966Z,96577.47
2023-03-18T21:43:35.907Z,96574.88
2023-03-18T21:46:06.792Z,96577.94
2023-03-18T21:48:35.228Z,96581.63
2023-03-18T21:51:04.483Z,96583.53
2023-03-18T21:53:32.852Z,96584.38
2023-03-18T21:56:01.134Z,96587.47
2023-03-18T21:58:30.935Z,96582.03
2023-03-18T22:01:01.368Z,96583.97
2023-03-18T22:03:35.663Z,96580.44
2023-03-18T22:06:04.291Z,96588.81
2023-03-18T22:08:32.573Z,96584.78
2023-03-18T22:11:01.914Z,96585.03
2023-03-18T22:13:33.292Z,96582.97
2023-03-18T22:16:02.146Z,96584.97
2023-03-18T22:18:31.526Z,96580.50
2023-03-18T22:21:00.326Z,96579.88
2023-03-18T22:23:31.305Z,96578.16
2023-03-18T22:26:00.289Z,96572.22
2023-03-18T22:28:29.195Z,96580.25
2023-03-18T22:31:01.383Z,96582.47
2023-03-18T22:33:34.711Z,96584.09
2023-03-18T22:36:03.536Z,96580.13
2023-03-18T22:38:32.061Z,96580.94
2023-03-18T22:41:00.586Z,96586.72
2023-03-18T22:43:32.552Z,96580.44
2023-03-18T22:46:05.221Z,96583.84
2023-03-18T22:48:33.838Z,96581.25
2023-03-18T22:51:04.451Z,96586.72
2023-03-18T22:53:36.930Z,96584.44
2023-03-18T22:56:12.147Z,96586.81
2023-03-18T22:58:41.014Z,96582.22
2023-03-18T23:01:16.401Z,96585.25
2023-03-18T23:03:46.884Z,96592.16
2023-03-18T23:06:20.000Z,96595.84
2023-03-18T23:08:48.981Z,96590.06
2023-03-18T23:11:18.294Z,96592.94
2023-03-18T23:13:50.938Z,96589.09
2023-03-18T23:16:25.931Z,96585.69
2023-03-18T23:18:54.503Z,96597.19
2023-03-18T23:21:26.327Z,96594.31
2023-03-18T23:23:56.273Z,96594.53
2023-03-18T23:26:24.643Z,96590.84
2023-03-18T23:28:53.188Z,96591.81
2023-03-18T23:31:22.940Z,96597.88
2023-03-18T23:33:51.417Z,96603.00
2023-03-18T23:36:19.843Z,96599.00
2023-03-18T23:38:48.239Z,96598.19
2023-03-18T23:41:16.866Z,96598.00
2023-03-18T23:43:47.307Z,96599.50
2023-03-18T23:46:15.682Z,96600.97
2023-03-18T23:48:45.506Z,96600.81
2023-03-18T23:51:13.870Z,96600.50
2023-03-18T23:53:42.172Z,96596.00
2023-03-18T23:56:11.825Z,96610.13
2023-03-18T23:58:40.303Z,96606.09
